Time;durP1;ratioP1;P1;durP2;ratioP2;P2;SDS_P1;SDS_P2;PMS_P1;PMS_P2;Temp;Humidity;BMP_temperature;BMP_pressure;BME280_temperature;BME280_humidity;BME280_pressure;Samples;Min_cycle;Max_cycle;Signal;HPM_P1;HPM_P2
2023/05/20 00:00:24;;;;;;;3.35;1.75;;;13.40;94.50;;;;;;5090203;28;20031;-65
2023/05/20 00:02:50;;;;;;;4.50;2.20;;;13.40;94.40;;;;;;5090277;28;20541;-64
2023/05/20 00:05:16;;;;;;;3.13;1.95;;;13.40;94.30;;;;;;5088419;28;20138;-65
2023/05/20 00:07:41;;;;;;;3.15;1.83;;;13.40;94.30;;;;;;5088209;28;20036;-64
2023/05/20 00:10:07;;;;;;;4.10;2.67;;;13.40;94.40;;;;;;5084444;28;20032;-66
2023/05/20 00:12:36;;;;;;;3.60;1.85;;;13.40;94.30;;;;;;5089696;28;20769;-65
2023/05/20 00:15:02;;;;;;;4.45;2.33;;;13.40;94.20;;;;;;5088105;28;20622;-65
2023/05/20 00:17:28;;;;;;;4.32;2.42;;;13.40;94.30;;;;;;5091168;28;20047;-66
2023/05/20 00:19:53;;;;;;;4.32;1.92;;;13.30;94.50;;;;;;5093286;28;20040;-65
2023/05/20 00:22:20;;;;;;;5.70;2.90;;;13.40;94.50;;;;;;5092382;28;20027;-65
2023/05/20 00:24:46;;;;;;;4.88;2.30;;;13.30;94.60;;;;;;5092092;28;20038;-65
2023/05/20 00:27:12;;;;;;;4.28;2.47;;;13.30;94.60;;;;;;5084844;28;20032;-64
2023/05/20 00:29:38;;;;;;;3.08;2.25;;;13.30;94.60;;;;;;5091558;28;20034;-65
2023/05/20 00:32:03;;;;;;;2.88;2.25;;;13.30;94.90;;;;;;5095019;28;20032;-65
2023/05/20 00:34:29;;;;;;;4.10;2.10;;;13.40;95.00;;;;;;5079484;28;20021;-64
2023/05/20 00:36:55;;;;;;;4.68;2.58;;;13.30;95.00;;;;;;5091002;28;20043;-65
2023/05/20 00:39:21;;;;;;;4.05;2.15;;;13.30;95.20;;;;;;5088520;28;20035;-65
2023/05/20 00:41:46;;;;;;;5.90;2.50;;;13.30;95.40;;;;;;5088109;28;20135;-66
2023/05/20 00:44:12;;;;;;;3.92;1.80;;;13.20;95.50;;;;;;5086443;28;20114;-64
2023/05/20 00:46:38;;;;;;;3.28;2.38;;;13.20;95.50;;;;;;5086685;28;20403;-65
2023/05/20 00:49:04;;;;;;;4.22;2.40;;;13.10;95.60;;;;;;5091405;28;20809;-66
2023/05/20 00:51:30;;;;;;;6.20;2.78;;;13.10;95.70;;;;;;5094471;28;20020;-66
2023/05/20 00:53:57;;;;;;;4.82;2.45;;;13.10;95.80;;;;;;5095525;28;20027;-66
2023/05/20 00:56:24;;;;;;;3.80;2.10;;;13.10;95.80;;;;;;5090472;28;20036;-65
2023/05/20 00:58:50;;;;;;;5.43;2.63;;;13.10;96.00;;;;;;5094999;28;20040;-65
2023/05/20 01:01:16;;;;;;;4.03;2.08;;;13.10;96.40;;;;;;5092363;28;20035;-64
2023/05/20 01:03:41;;;;;;;5.45;2.47;;;13.10;96.20;;;;;;5090688;28;20157;-65
2023/05/20 01:06:07;;;;;;;4.60;2.20;;;13.10;96.40;;;;;;5093962;28;20384;-65
2023/05/20 01:08:34;;;;;;;6.07;2.63;;;13.00;96.10;;;;;;5091536;28;20747;-64
2023/05/20 01:11:14;;;;;;;4.20;2.60;;;13.00;96.30;;;;;;5092422;28;20046;-64
2023/05/20 01:13:49;;;;;;;4.05;2.28;;;13.00;96.50;;;;;;5088160;28;20567;-65
2023/05/20 01:16:17;;;;;;;6.53;2.53;;;13.00;96.50;;;;;;5090611;28;20582;-65
2023/05/20 01:18:47;;;;;;;3.33;1.90;;;13.00;96.60;;;;;;5097797;28;20024;-66
2023/05/20 01:21:14;;;;;;;5.03;2.60;;;13.00;96.70;;;;;;5095008;28;20035;-65
2023/05/20 01:23:41;;;;;;;4.50;2.30;;;13.00;96.60;;;;;;5091810;28;20034;-65
2023/05/20 01:26:09;;;;;;;4.45;2.35;;;13.00;96.80;;;;;;5091298;28;20028;-65
2023/05/20 01:28:38;;;;;;;4.35;2.13;;;13.00;97.00;;;;;;5088796;28;20036;-65
2023/05/20 01:31:05;;;;;;;5.25;2.33;;;13.00;97.00;;;;;;5093080;28;20024;-64
2023/05/20 01:33:35;;;;;;;4.93;2.35;;;12.90;97.10;;;;;;5089811;28;20104;-66
2023/05/20 01:36:01;;;;;;;3.13;2.28;;;12.90;97.20;;;;;;5092362;28;20080;-63
2023/05/20 01:38:28;;;;;;;2.95;2.25;;;12.90;97.30;;;;;;5090989;28;20150;-65
2023/05/20 01:40:56;;;;;;;4.88;2.42;;;12.80;97.40;;;;;;5090265;28;20040;-65
2023/05/20 01:43:23;;;;;;;3.83;2.33;;;12.70;97.70;;;;;;5092866;28;20139;-65
2023/05/20 01:45:49;;;;;;;3.85;2.20;;;12.80;97.70;;;;;;5091241;28;20845;-65
2023/05/20 01:48:15;;;;;;;5.45;2.53;;;12.70;97.70;;;;;;5092883;28;20038;-66
2023/05/20 01:50:42;;;;;;;3.30;2.22;;;12.60;97.80;;;;;;5091042;28;20173;-66
2023/05/20 01:53:09;;;;;;;7.25;2.45;;;12.60;97.90;;;;;;5092638;28;20517;-65
2023/05/20 01:55:35;;;;;;;4.78;2.38;;;12.50;98.10;;;;;;5094012;28;20027;-65
2023/05/20 01:58:02;;;;;;;3.65;1.77;;;12.50;98.20;;;;;;5089583;27;20570;-65
2023/05/20 02:00:28;;;;;;;5.28;2.30;;;12.40;98.20;;;;;;5091464;28;20074;-65
2023/05/20 02:02:53;;;;;;;5.03;2.30;;;12.40;98.30;;;;;;5090584;28;20074;-65
2023/05/20 02:05:19;;;;;;;4.03;2.65;;;12.30;98.50;;;;;;5090937;28;20051;-65
2023/05/20 02:07:45;;;;;;;4.03;2.10;;;12.30;98.60;;;;;;5092337;28;20505;-66
2023/05/20 02:10:12;;;;;;;4.53;2.00;;;12.30;98.70;;;;;;5083599;28;20039;-66
2023/05/20 02:12:37;;;;;;;6.70;2.30;;;12.30;98.80;;;;;;5080477;28;20043;-65
2023/05/20 02:15:04;;;;;;;3.40;2.70;;;12.30;98.90;;;;;;5082223;28;20024;-65
2023/05/20 02:17:30;;;;;;;4.18;2.63;;;12.30;98.90;;;;;;5086269;28;20028;-65
2023/05/20 02:19:56;;;;;;;3.83;2.40;;;12.20;99.00;;;;;;5086866;28;20042;-65
2023/05/20 02:22:22;;;;;;;5.50;2.38;;;12.20;99.00;;;;;;5080913;28;20035;-65
2023/05/20 02:24:48;;;;;;;4.25;2.65;;;12.20;99.20;;;;;;5088005;28;20470;-66
2023/05/20 02:27:15;;;;;;;6.93;2.80;;;12.10;99.20;;;;;;5089042;28;20111;-65
2023/05/20 02:29:42;;;;;;;3.70;2.20;;;12.10;99.40;;;;;;5076261;28;20032;-65
2023/05/20 02:32:10;;;;;;;3.53;2.58;;;12.10;99.40;;;;;;5077810;28;20388;-65
2023/05/20 02:34:35;;;;;;;3.80;2.67;;;12.10;99.30;;;;;;5089764;28;20036;-65
2023/05/20 02:37:01;;;;;;;4.28;2.25;;;12.00;99.30;;;;;;5082912;28;20087;-64
2023/05/20 02:39:28;;;;;;;5.78;2.85;;;12.00;99.60;;;;;;5084828;28;20055;-65
2023/05/20 02:41:53;;;;;;;5.07;2.50;;;12.00;99.80;;;;;;5082629;28;20464;-65
2023/05/20 02:44:20;;;;;;;3.30;2.08;;;12.00;99.60;;;;;;5087790;28;20036;-65
2023/05/20 02:46:47;;;;;;;2.83;2.15;;;12.00;99.50;;;;;;5086373;28;20036;-65
2023/05/20 02:49:12;;;;;;;5.10;2.60;;;12.00;99.40;;;;;;5076806;28;20031;-65
2023/05/20 02:51:39;;;;;;;5.05;2.65;;;11.90;99.50;;;;;;5089244;28;20051;-65
2023/05/20 02:54:05;;;;;;;3.38;2.20;;;11.90;99.60;;;;;;5077405;28;20132;-65
2023/05/20 02:56:32;;;;;;;2.92;2.40;;;11.80;99.80;;;;;;5082774;28;20547;-65
2023/05/20 02:59:00;;;;;;;3.72;2.55;;;11.80;99.90;;;;;;5079939;28;20032;-64
2023/05/20 03:01:26;;;;;;;4.72;2.35;;;11.80;99.90;;;;;;5083815;28;20035;-65
2023/05/20 03:03:52;;;;;;;3.85;2.40;;;11.80;99.90;;;;;;5081716;28;20058;-65
2023/05/20 03:06:18;;;;;;;4.47;2.40;;;11.90;99.90;;;;;;5082807;28;20035;-65
2023/05/20 03:08:44;;;;;;;5.47;2.63;;;12.00;99.90;;;;;;5089986;28;20028;-65
2023/05/20 03:11:09;;;;;;;3.63;2.30;;;12.00;99.90;;;;;;5086605;28;20096;-64
2023/05/20 03:13:35;;;;;;;5.80;2.40;;;12.10;99.90;;;;;;5081370;28;20055;-65
2023/05/20 03:16:01;;;;;;;4.38;2.42;;;12.10;99.90;;;;;;5078563;28;20020;-65
2023/05/20 03:18:27;;;;;;;4.40;2.67;;;12.20;99.90;;;;;;5080167;28;20040;-65
2023/05/20 03:20:53;;;;;;;4.72;2.78;;;12.20;99.90;;;;;;5084561;28;20028;-65
2023/05/20 03:23:18;;;;;;;4.30;2.97;;;12.30;99.90;;;;;;5074969;28;20039;-64
2023/05/20 03:25:45;;;;;;;4.72;2.83;;;12.40;99.90;;;;;;5076656;28;20028;-65
2023/05/20 03:28:11;;;;;;;3.42;2.42;;;12.40;99.90;;;;;;5074084;28;20042;-65
2023/05/20 03:30:37;;;;;;;6.18;2.92;;;12.50;99.90;;;;;;5078608;28;20031;-65
2023/05/20 03:33:04;;;;;;;6.80;2.65;;;12.60;99.90;;;;;;5084791;28;20802;-66
2023/05/20 03:35:30;;;;;;;6.13;3.30;;;12.60;99.90;;;;;;5076685;28;20082;-64
2023/05/20 03:37:58;;;;;;;4.10;2.60;;;12.60;99.90;;;;;;5076936;28;20559;-65
2023/05/20 03:40:24;;;;;;;4.18;2.75;;;12.70;99.90;;;;;;5068223;28;20035;-64
2023/05/20 03:42:50;;;;;;;5.63;2.60;;;12.80;99.90;;;;;;5074514;28;20074;-64
2023/05/20 03:45:18;;;;;;;4.05;2.33;;;12.80;99.90;;;;;;5084614;28;20038;-65
2023/05/20 03:47:58;;;;;;;5.78;3.05;;;12.90;99.90;;;;;;5079671;28;20035;-65
2023/05/20 03:50:24;;;;;;;6.28;2.80;;;13.00;99.80;;;;;;5085712;28;20044;-64
2023/05/20 03:52:50;;;;;;;3.90;2.80;;;13.00;99.60;;;;;;5080740;28;20028;-64
2023/05/20 03:55:19;;;;;;;3.70;2.72;;;13.10;99.50;;;;;;5088252;28;20656;-64
2023/05/20 03:57:45;;;;;;;6.35;3.28;;;13.10;99.50;;;;;;5084220;28;20760;-65
2023/05/20 04:00:13;;;;;;;6.68;3.47;;;13.10;99.40;;;;;;5081818;28;20032;-65
2023/05/20 04:02:44;;;;;;;4.85;2.75;;;13.20;99.20;;;;;;5080935;28;20044;-65
2023/05/20 04:05:14;;;;;;;5.07;2.85;;;13.30;99.10;;;;;;5082715;28;20036;-65
2023/05/20 04:07:40;;;;;;;6.05;2.92;;;13.30;99.10;;;;;;5086900;28;20456;-66
2023/05/20 04:10:08;;;;;;;7.15;3.38;;;13.40;99.10;;;;;;5084360;28;20077;-65
2023/05/20 04:12:36;;;;;;;5.38;2.90;;;13.40;99.00;;;;;;5079199;28;20140;-65
2023/05/20 04:15:02;;;;;;;7.93;3.15;;;13.40;98.80;;;;;;5079574;28;20028;-65
2023/05/20 04:17:37;;;;;;;7.40;2.95;;;13.50;98.80;;;;;;5074641;28;20063;-65
2023/05/20 04:20:06;;;;;;;4.90;2.80;;;13.50;98.50;;;;;;5082316;28;20680;-65
2023/05/20 04:22:33;;;;;;;4.88;2.75;;;13.50;98.60;;;;;;5073362;28;20042;-65
2023/05/20 04:24:59;;;;;;;4.72;2.80;;;13.60;98.70;;;;;;5085348;28;20036;-66
2023/05/20 04:27:25;;;;;;;8.43;3.55;;;13.60;98.60;;;;;;5088301;28;20046;-65
2023/05/20 04:29:51;;;;;;;8.68;3.83;;;13.60;98.60;;;;;;5083745;28;20036;-65
2023/05/20 04:32:18;;;;;;;4.93;2.80;;;13.70;98.60;;;;;;5083434;28;20028;-65
2023/05/20 04:34:45;;;;;;;3.83;2.85;;;13.70;98.50;;;;;;5092023;28;20028;-65
2023/05/20 04:37:12;;;;;;;6.03;2.80;;;13.70;98.50;;;;;;5085987;28;20031;-64
2023/05/20 04:39:39;;;;;;;8.52;3.00;;;13.70;98.40;;;;;;5074187;28;20040;-66
2023/05/20 04:42:07;;;;;;;5.53;3.28;;;13.80;98.50;;;;;;5082928;28;20444;-65
2023/05/20 04:44:33;;;;;;;5.97;2.83;;;13.70;98.20;;;;;;5085837;28;20043;-65
2023/05/20 04:46:59;;;;;;;6.07;3.05;;;13.80;98.40;;;;;;5085098;28;20108;-65
2023/05/20 04:49:25;;;;;;;4.95;2.70;;;13.80;98.20;;;;;;5080429;28;20085;-65
2023/05/20 04:51:53;;;;;;;4.60;3.15;;;13.80;98.30;;;;;;5086850;28;20036;-65
2023/05/20 04:54:19;;;;;;;6.85;3.10;;;13.80;98.00;;;;;;5085746;28;20063;-65
2023/05/20 04:56:45;;;;;;;5.07;2.85;;;13.80;98.20;;;;;;5086749;28;20126;-66
2023/05/20 04:59:12;;;;;;;5.05;2.83;;;13.70;98.40;;;;;;5086779;28;20126;-65
2023/05/20 05:01:39;;;;;;;7.22;3.35;;;13.80;98.40;;;;;;5086720;28;20146;-64
2023/05/20 05:04:05;;;;;;;6.03;2.90;;;13.80;98.20;;;;;;5089599;28;20122;-65
2023/05/20 05:06:31;;;;;;;8.00;2.90;;;13.90;98.10;;;;;;5079492;28;20028;-65
2023/05/20 05:08:58;;;;;;;5.47;3.13;;;13.90;98.30;;;;;;5093340;28;20035;-65
2023/05/20 05:11:25;;;;;;;5.35;2.80;;;14.00;97.90;;;;;;5087951;28;20034;-65
2023/05/20 05:13:51;;;;;;;6.47;2.75;;;14.00;97.90;;;;;;5086539;28;20165;-65
2023/05/20 05:16:20;;;;;;;4.50;2.88;;;14.00;97.90;;;;;;5085689;28;20191;-65
2023/05/20 05:18:46;;;;;;;7.40;2.92;;;14.10;98.00;;;;;;5084581;28;20661;-64
2023/05/20 05:21:12;;;;;;;3.75;2.83;;;14.20;97.90;;;;;;5085529;28;20028;-65
2023/05/20 05:23:37;;;;;;;6.22;3.05;;;14.20;97.50;;;;;;5083736;28;20028;-65
2023/05/20 05:26:03;;;;;;;7.43;3.17;;;14.20;97.30;;;;;;5085290;28;20039;-65
2023/05/20 05:28:29;;;;;;;5.32;3.03;;;14.20;97.20;;;;;;5079278;28;20036;-65
2023/05/20 05:30:56;;;;;;;7.28;3.15;;;14.20;97.20;;;;;;5083770;28;20130;-62
2023/05/20 05:33:22;;;;;;;8.85;3.53;;;14.30;97.30;;;;;;5085635;28;20631;-66
2023/05/20 05:35:49;;;;;;;7.18;3.10;;;14.30;97.20;;;;;;5062635;28;20032;-65
2023/05/20 05:38:14;;;;;;;6.07;3.15;;;14.30;97.10;;;;;;5091574;28;20126;-65
2023/05/20 05:40:40;;;;;;;5.22;2.80;;;14.30;97.00;;;;;;5084754;28;20035;-66
2023/05/20 05:43:06;;;;;;;5.18;2.53;;;14.30;97.10;;;;;;5084183;28;20879;-66
2023/05/20 05:45:33;;;;;;;7.28;3.53;;;14.30;97.20;;;;;;5079181;28;20754;-65
2023/05/20 05:47:59;;;;;;;5.05;3.05;;;14.30;97.10;;;;;;5080833;28;20028;-66
2023/05/20 05:50:25;;;;;;;9.80;3.45;;;14.40;97.10;;;;;;5086533;28;20028;-66
2023/05/20 05:52:51;;;;;;;6.57;3.15;;;14.40;96.90;;;;;;5079900;28;20024;-64
2023/05/20 05:55:17;;;;;;;4.88;2.83;;;14.40;96.90;;;;;;5075433;28;20377;-66
2023/05/20 05:57:44;;;;;;;3.83;2.53;;;14.40;96.90;;;;;;5063663;28;20077;-66
2023/05/20 06:00:13;;;;;;;6.47;3.55;;;14.40;97.10;;;;;;5073729;28;20126;-66
2023/05/20 06:02:46;;;;;;;9.13;3.58;;;14.50;96.90;;;;;;5083124;28;20040;-65
2023/05/20 06:05:20;;;;;;;6.78;3.15;;;14.50;96.60;;;;;;5080224;28;20394;-66
2023/05/20 06:07:45;;;;;;;6.00;3.28;;;14.50;96.80;;;;;;5078097;28;20039;-66
2023/05/20 06:10:11;;;;;;;5.53;2.75;;;14.50;96.50;;;;;;5082734;28;20024;-63
2023/05/20 06:12:37;;;;;;;7.05;3.30;;;14.50;96.90;;;;;;5077527;28;20073;-66
2023/05/20 06:15:03;;;;;;;5.45;3.28;;;14.50;96.60;;;;;;5080440;28;20031;-66
2023/05/20 06:17:29;;;;;;;8.10;3.40;;;14.50;96.70;;;;;;5085141;28;20032;-66
2023/05/20 06:19:55;;;;;;;5.22;3.08;;;14.50;96.70;;;;;;5081532;28;20743;-66
2023/05/20 06:22:21;;;;;;;6.57;3.65;;;14.50;96.80;;;;;;5087301;28;20043;-65
2023/05/20 06:24:47;;;;;;;6.88;2.88;;;14.60;97.00;;;;;;5086361;28;20032;-65
2023/05/20 06:27:13;;;;;;;6.15;3.45;;;14.60;96.90;;;;;;5086337;28;20042;-66
2023/05/20 06:29:38;;;;;;;7.75;3.33;;;14.60;96.70;;;;;;5077268;28;20810;-64
2023/05/20 06:32:05;;;;;;;6.47;3.35;;;14.70;96.70;;;;;;5085983;28;20039;-65
2023/05/20 06:34:31;;;;;;;6.00;3.63;;;14.80;96.50;;;;;;5088584;28;20688;-64
2023/05/20 06:36:57;;;;;;;5.25;3.33;;;14.80;96.70;;;;;;5078309;28;20121;-64
2023/05/20 06:39:23;;;;;;;6.28;3.80;;;14.80;96.80;;;;;;5077008;28;20020;-65
2023/05/20 06:41:50;;;;;;;5.22;3.50;;;14.80;96.70;;;;;;5078529;28;20126;-65
2023/05/20 06:44:26;;;;;;;4.97;3.40;;;14.90;96.40;;;;;;5083194;28;20036;-65
2023/05/20 06:46:58;;;;;;;7.70;3.55;;;14.90;96.60;;;;;;5084861;28;20475;-65
2023/05/20 06:49:24;;;;;;;7.93;3.50;;;14.90;96.90;;;;;;5082395;28;20055;-65
2023/05/20 06:51:50;;;;;;;8.10;3.95;;;14.90;96.70;;;;;;5085122;28;20035;-64
2023/05/20 06:54:16;;;;;;;7.38;3.58;;;15.00;96.70;;;;;;5082052;28;21030;-65
2023/05/20 06:56:43;;;;;;;6.68;3.72;;;15.00;96.40;;;;;;5083356;28;20035;-64
2023/05/20 06:59:09;;;;;;;8.35;4.35;;;15.00;96.60;;;;;;5090992;28;20034;-64
2023/05/20 07:01:36;;;;;;;7.22;3.53;;;15.00;96.70;;;;;;5080867;28;20029;-64
2023/05/20 07:04:03;;;;;;;7.40;3.50;;;15.00;96.80;;;;;;5087391;28;20027;-64
2023/05/20 07:06:30;;;;;;;9.10;3.95;;;15.00;96.70;;;;;;5087470;28;20047;-64
2023/05/20 07:08:57;;;;;;;7.70;4.30;;;15.20;96.50;;;;;;5093407;28;20061;-64
2023/05/20 07:11:23;;;;;;;7.53;4.25;;;15.20;96.30;;;;;;5081155;28;20024;-63
2023/05/20 07:13:49;;;;;;;6.28;3.85;;;15.20;96.10;;;;;;5089573;28;20030;-64
2023/05/20 07:16:15;;;;;;;8.23;4.30;;;15.20;96.30;;;;;;5082067;28;20036;-63
2023/05/20 07:18:45;;;;;;;8.07;4.05;;;15.30;96.40;;;;;;5083329;28;20080;-63
2023/05/20 07:21:11;;;;;;;5.05;3.58;;;15.30;96.00;;;;;;5073977;28;20036;-65
2023/05/20 07:23:59;;;;;;;5.90;3.42;;;15.30;96.40;;;;;;5091233;28;20031;-64
2023/05/20 07:26:25;;;;;;;8.65;3.92;;;15.40;96.40;;;;;;5077932;28;20643;-64
2023/05/20 07:28:51;;;;;;;9.73;4.30;;;15.50;96.20;;;;;;5084729;28;20467;-64
2023/05/20 07:31:17;;;;;;;6.88;3.95;;;15.60;96.00;;;;;;5072205;28;20020;-66
2023/05/20 07:33:43;;;;;;;6.63;3.70;;;15.70;95.80;;;;;;5077350;28;20066;-63
2023/05/20 07:36:09;;;;;;;9.60;4.53;;;15.80;95.70;;;;;;5082587;28;20529;-64
2023/05/20 07:38:36;;;;;;;6.95;3.90;;;15.90;95.60;;;;;;5075489;28;20032;-64
2023/05/20 07:41:06;;;;;;;9.82;4.15;;;15.90;95.30;;;;;;5086570;28;20035;-64
2023/05/20 07:43:33;;;;;;;7.70;4.45;;;15.90;95.50;;;;;;5078945;28;20830;-65
2023/05/20 07:45:59;;;;;;;7.30;3.95;;;15.90;95.30;;;;;;5085166;28;20040;-64
2023/05/20 07:48:25;;;;;;;6.45;4.15;;;15.90;95.50;;;;;;5075341;28;20035;-63
2023/05/20 07:50:51;;;;;;;11.60;4.90;;;16.00;95.40;;;;;;5073807;28;20051;-64
2023/05/20 07:53:18;;;;;;;8.85;4.15;;;16.10;94.80;;;;;;5083953;28;20077;-65
2023/05/20 07:55:43;;;;;;;8.20;4.55;;;16.00;95.00;;;;;;5078088;28;20038;-64
2023/05/20 07:58:09;;;;;;;6.53;4.05;;;16.10;95.00;;;;;;5078376;28;20031;-65
2023/05/20 08:00:35;;;;;;;7.10;4.68;;;16.10;94.90;;;;;;5078621;28;20495;-64
2023/05/20 08:03:06;;;;;;;7.00;4.30;;;16.20;94.90;;;;;;5081952;28;20112;-65
2023/05/20 08:05:45;;;;;;;8.30;4.45;;;16.30;94.80;;;;;;5078222;28;20039;-65
2023/05/20 08:08:12;;;;;;;9.27;4.50;;;16.40;94.60;;;;;;5085090;28;20121;-66
2023/05/20 08:10:50;;;;;;;5.53;4.22;;;16.40;94.10;;;;;;5083028;28;20069;-65
2023/05/20 08:13:16;;;;;;;9.20;4.68;;;16.30;94.00;;;;;;5082356;28;20169;-63
2023/05/20 08:15:42;;;;;;;7.65;4.53;;;16.40;94.10;;;;;;5083773;28;20143;-65
2023/05/20 08:18:08;;;;;;;6.28;4.25;;;16.60;94.10;;;;;;5082632;28;20161;-65
2023/05/20 08:20:34;;;;;;;7.43;4.85;;;16.60;93.50;;;;;;5085466;28;20040;-64
2023/05/20 08:23:00;;;;;;;7.13;4.28;;;16.70;93.70;;;;;;5090032;28;20047;-64
2023/05/20 08:25:26;;;;;;;7.35;4.22;;;16.70;93.60;;;;;;5078770;28;20090;-62
2023/05/20 08:27:52;;;;;;;8.63;4.20;;;16.70;93.50;;;;;;5080386;28;20040;-62
2023/05/20 08:30:18;;;;;;;8.52;4.20;;;16.80;93.20;;;;;;5087199;28;20028;-63
2023/05/20 08:32:45;;;;;;;8.80;4.57;;;17.00;93.10;;;;;;5080591;28;20566;-63
2023/05/20 08:35:10;;;;;;;7.53;3.80;;;17.00;92.60;;;;;;5088626;28;20027;-63
2023/05/20 08:37:37;;;;;;;6.57;3.60;;;17.10;92.60;;;;;;5081374;28;20032;-63
2023/05/20 08:40:04;;;;;;;5.82;4.18;;;17.40;92.60;;;;;;5084513;28;20109;-63
2023/05/20 08:42:30;;;;;;;10.02;4.22;;;17.50;91.60;;;;;;5085928;28;20044;-63
2023/05/20 08:44:58;;;;;;;12.82;3.83;;;17.50;91.80;;;;;;5081316;28;20060;-63
2023/05/20 08:47:25;;;;;;;7.22;3.30;;;17.60;91.20;;;;;;5086056;28;20092;-63
2023/05/20 08:49:51;;;;;;;8.07;3.92;;;17.70;91.60;;;;;;5088928;28;20040;-63
2023/05/20 08:52:20;;;;;;;8.48;3.85;;;17.80;91.30;;;;;;5089245;28;20032;-63
2023/05/20 08:54:48;;;;;;;8.18;3.70;;;17.90;91.00;;;;;;5089965;28;20056;-63
2023/05/20 08:57:14;;;;;;;6.10;3.50;;;18.00;90.70;;;;;;5087104;28;20044;-63
2023/05/20 08:59:45;;;;;;;5.35;3.50;;;17.90;90.60;;;;;;5071263;28;20035;-63
2023/05/20 09:02:12;;;;;;;5.72;3.55;;;17.90;90.50;;;;;;5087818;28;20036;-63
2023/05/20 09:04:38;;;;;;;5.95;3.40;;;18.00;90.30;;;;;;5086411;28;20036;-63
2023/05/20 09:07:04;;;;;;;5.78;3.22;;;18.00;90.60;;;;;;5087778;28;20060;-63
2023/05/20 09:09:31;;;;;;;4.38;3.45;;;17.90;90.60;;;;;;5084854;28;20028;-62
2023/05/20 09:12:00;;;;;;;7.97;4.10;;;17.90;90.30;;;;;;5093297;28;20032;-63
2023/05/20 09:14:27;;;;;;;5.60;3.58;;;17.90;90.40;;;;;;5080617;28;20032;-63
2023/05/20 09:16:53;;;;;;;6.63;3.92;;;17.90;90.30;;;;;;5092253;28;20032;-63
2023/05/20 09:19:22;;;;;;;9.77;4.22;;;17.80;90.50;;;;;;5087211;28;20105;-63
2023/05/20 09:21:50;;;;;;;6.20;3.60;;;17.60;90.00;;;;;;5085255;28;20115;-63
2023/05/20 09:24:22;;;;;;;6.25;3.67;;;17.60;90.60;;;;;;5093888;28;20571;-63
2023/05/20 09:26:47;;;;;;;4.13;3.17;;;17.60;91.00;;;;;;5094909;28;20036;-63
2023/05/20 09:29:13;;;;;;;6.47;4.55;;;17.70;91.10;;;;;;5091499;28;20745;-63
2023/05/20 09:31:39;;;;;;;6.05;4.40;;;17.70;90.00;;;;;;5087506;28;20492;-63
2023/05/20 09:34:05;;;;;;;9.65;4.13;;;17.70;90.40;;;;;;5090197;28;20357;-63
2023/05/20 09:36:33;;;;;;;6.78;4.20;;;17.50;90.50;;;;;;5084824;28;20028;-63
2023/05/20 09:39:04;;;;;;;8.25;4.10;;;17.40;90.60;;;;;;5082434;28;20027;-63
2023/05/20 09:41:37;;;;;;;5.15;4.25;;;17.40;91.20;;;;;;5089305;28;20028;-63
2023/05/20 09:44:05;;;;;;;7.03;4.28;;;17.30;91.20;;;;;;5087513;28;20024;-63
2023/05/20 09:46:33;;;;;;;7.10;4.30;;;17.30;91.10;;;;;;5087101;28;20032;-63
2023/05/20 09:48:59;;;;;;;7.45;4.63;;;17.40;91.00;;;;;;5088283;28;20028;-63
2023/05/20 09:51:28;;;;;;;6.07;4.40;;;17.50;91.40;;;;;;5086988;28;20103;-63
2023/05/20 09:53:54;;;;;;;7.70;4.28;;;17.60;90.70;;;;;;5092912;28;20051;-63
2023/05/20 09:56:22;;;;;;;5.43;4.10;;;17.60;90.80;;;;;;5079236;28;20398;-62
2023/05/20 09:58:49;;;;;;;6.95;4.60;;;17.60;91.50;;;;;;5086412;28;20085;-63
2023/05/20 10:01:15;;;;;;;8.82;4.65;;;17.70;91.10;;;;;;5090223;28;20475;-63
2023/05/20 10:03:43;;;;;;;7.68;4.40;;;17.70;90.60;;;;;;5087257;28;20556;-63
2023/05/20 10:06:19;;;;;;;8.38;4.28;;;17.80;90.80;;;;;;5092427;28;20403;-63
2023/05/20 10:08:55;;;;;;;;;;;17.90;90.60;;;;;;5087834;28;20036;-63
2023/05/20 10:11:34;;;;;;;5.85;4.03;;;17.90;90.10;;;;;;5085206;28;19911;-63
2023/05/20 10:14:06;;;;;;;7.68;5.13;;;18.00;90.70;;;;;;5087074;28;20062;-63
2023/05/20 10:16:41;;;;;;;6.68;4.18;;;18.20;90.00;;;;;;5085317;28;20064;-63
2023/05/20 10:19:22;;;;;;;8.77;4.70;;;18.20;89.90;;;;;;5092531;28;20046;-63
2023/05/20 10:21:57;;;;;;;7.22;4.45;;;18.30;89.50;;;;;;5088065;28;20126;-63
2023/05/20 10:24:34;;;;;;;7.60;4.75;;;18.40;90.10;;;;;;5086245;28;20034;-63
2023/05/20 10:27:02;;;;;;;7.80;4.85;;;18.40;88.60;;;;;;5085416;28;20767;-63
2023/05/20 10:29:29;;;;;;;6.30;4.43;;;18.50;88.10;;;;;;5090640;28;20027;-63
2023/05/20 10:31:55;;;;;;;5.55;4.43;;;18.60;88.80;;;;;;5082673;28;20039;-63
2023/05/20 10:34:22;;;;;;;8.68;4.78;;;18.60;88.20;;;;;;5087236;28;20679;-63
2023/05/20 10:36:53;;;;;;;7.47;5.15;;;18.50;88.10;;;;;;5088965;28;20047;-63
2023/05/20 10:39:26;;;;;;;8.63;4.93;;;18.50;89.40;;;;;;5081016;28;20753;-63
2023/05/20 10:41:52;;;;;;;7.40;4.55;;;18.80;88.60;;;;;;5084232;28;20032;-63
2023/05/20 10:44:18;;;;;;;7.40;5.07;;;18.90;87.10;;;;;;5086688;28;20060;-63
2023/05/20 10:46:43;;;;;;;8.65;5.10;;;19.00;86.20;;;;;;5085106;28;20395;-63
2023/05/20 10:49:18;;;;;;;7.35;4.05;;;19.10;86.80;;;;;;5085300;28;20075;-63
2023/05/20 10:51:45;;;;;;;8.05;5.13;;;19.40;87.30;;;;;;5085957;28;20544;-63
2023/05/20 10:54:12;;;;;;;8.77;4.78;;;19.60;84.80;;;;;;5085666;28;20039;-63
2023/05/20 10:56:49;;;;;;;7.00;4.75;;;19.80;84.30;;;;;;5083147;28;20464;-63
2023/05/20 10:59:15;;;;;;;9.68;5.15;;;20.00;83.60;;;;;;5082968;28;20027;-63
2023/05/20 11:01:42;;;;;;;6.07;4.60;;;20.00;82.00;;;;;;5084917;28;20401;-63
2023/05/20 11:04:08;;;;;;;6.80;4.88;;;20.00;82.50;;;;;;5082644;28;20119;-63
2023/05/20 11:06:34;;;;;;;8.43;5.90;;;20.10;82.80;;;;;;5088969;28;20495;-63
2023/05/20 11:09:06;;;;;;;9.15;4.78;;;20.00;81.30;;;;;;5085927;28;20073;-63
2023/05/20 11:11:32;;;;;;;9.35;5.60;;;19.90;82.20;;;;;;5090089;28;20040;-63
2023/05/20 11:13:59;;;;;;;9.25;5.60;;;19.80;83.10;;;;;;5086748;28;20059;-63
2023/05/20 11:16:25;;;;;;;7.05;4.82;;;19.80;83.70;;;;;;5089238;28;20115;-63
2023/05/20 11:18:51;;;;;;;9.98;5.45;;;19.90;84.30;;;;;;5089255;28;20139;-63
2023/05/20 11:21:18;;;;;;;7.93;5.10;;;19.90;83.10;;;;;;5082484;28;20464;-64
2023/05/20 11:23:44;;;;;;;10.45;5.63;;;19.90;82.30;;;;;;5086890;28;20032;-64
2023/05/20 11:26:10;;;;;;;8.43;5.40;;;20.00;82.80;;;;;;5092503;28;20076;-64
2023/05/20 11:28:36;;;;;;;9.00;6.05;;;19.90;82.40;;;;;;5082836;28;20036;-64
2023/05/20 11:31:03;;;;;;;11.63;5.65;;;20.00;82.40;;;;;;5090272;28;20035;-64
2023/05/20 11:33:29;;;;;;;8.75;5.65;;;20.10;83.60;;;;;;5082183;28;20056;-65
2023/05/20 11:35:56;;;;;;;7.00;5.22;;;20.10;82.30;;;;;;5087398;28;20139;-65
2023/05/20 11:38:23;;;;;;;7.95;4.85;;;20.10;80.70;;;;;;5085446;28;20653;-66
2023/05/20 11:40:53;;;;;;;8.38;6.15;;;20.20;82.10;;;;;;5087179;28;20035;-66
2023/05/20 11:43:20;;;;;;;8.48;5.47;;;20.10;80.00;;;;;;5087004;28;20044;-65
2023/05/20 11:45:58;;;;;;;6.40;5.30;;;20.20;81.10;;;;;;5081808;28;20122;-65
2023/05/20 11:48:24;;;;;;;7.70;5.63;;;20.10;80.00;;;;;;5083485;28;20057;-64
2023/05/20 11:50:54;;;;;;;9.02;5.93;;;20.00;80.30;;;;;;5082594;28;20032;-64
2023/05/20 11:53:22;;;;;;;7.95;5.07;;;20.00;80.70;;;;;;5085918;28;20126;-64
2023/05/20 11:55:50;;;;;;;8.45;5.68;;;20.00;80.40;;;;;;5084398;28;20024;-64
2023/05/20 11:58:42;;;;;;;7.55;5.47;;;20.10;81.40;;;;;;5082728;28;20527;-64
2023/05/20 12:01:08;;;;;;;9.63;5.28;;;20.20;81.10;;;;;;5087793;28;20526;-64
2023/05/20 12:03:35;;;;;;;10.13;5.57;;;20.30;82.20;;;;;;5084804;28;20055;-64
2023/05/20 12:06:02;;;;;;;10.05;5.90;;;20.40;80.20;;;;;;5092025;28;20130;-64
2023/05/20 12:08:28;;;;;;;8.30;4.93;;;20.40;81.10;;;;;;5085671;28;20043;-64
2023/05/20 12:10:54;;;;;;;8.13;5.50;;;20.30;79.70;;;;;;5086139;28;20032;-64
2023/05/20 12:13:20;;;;;;;11.10;6.43;;;20.20;80.40;;;;;;5081005;28;20414;-64
2023/05/20 12:15:45;;;;;;;8.15;5.50;;;20.10;79.20;;;;;;5083036;28;20494;-64
2023/05/20 12:18:11;;;;;;;10.05;6.10;;;19.90;81.10;;;;;;5086591;28;20035;-64
2023/05/20 12:20:37;;;;;;;10.77;6.60;;;20.00;82.90;;;;;;5081375;28;20055;-64
2023/05/20 12:23:03;;;;;;;7.60;5.47;;;20.10;82.40;;;;;;5086037;28;20566;-63
2023/05/20 12:25:29;;;;;;;8.05;5.65;;;20.20;80.20;;;;;;5084909;28;20132;-67
2023/05/20 12:27:55;;;;;;;8.68;5.78;;;20.20;81.30;;;;;;5082070;28;20075;-66
2023/05/20 12:30:22;;;;;;;9.73;5.68;;;20.30;80.80;;;;;;5084213;28;20111;-66
2023/05/20 12:32:52;;;;;;;7.60;5.30;;;20.40;81.40;;;;;;5084897;28;20028;-66
2023/05/20 12:35:39;;;;;;;11.90;6.70;;;20.50;81.00;;;;;;5086470;28;20538;-64
2023/05/20 12:38:06;;;;;;;9.60;5.97;;;20.40;78.20;;;;;;5087350;28;20032;-64
2023/05/20 12:40:35;;;;;;;8.75;5.57;;;20.40;81.20;;;;;;5083828;28;20036;-67
2023/05/20 12:43:02;;;;;;;11.68;6.68;;;20.50;80.20;;;;;;5089454;28;20042;-67
2023/05/20 12:45:28;;;;;;;10.88;5.50;;;20.50;78.90;;;;;;5086911;28;21368;-66